This is the latest recevied weather packets stored in our database for station/object KD8OUK. If no packets are shown the sender has not sent any weather packets the latest 1 day(s).
| Time | Temp. | Humidity | Pressure | Rain* | Wind** | Luminosity | Snow |
|---|---|---|---|---|---|---|---|
| 1778082632 | 13.33° C | 66% | 1013.5 hPa | 0 mm | - | - | - |
| 1778082324 | 13.33° C | 70% | 1013.4 hPa | 0 mm | - | - | - |
| 1778081726 | 12.22° C | 70% | 1013.1 hPa | 0 mm | - | - | - |
| 1778080223 | 11.11° C | 80% | 1012.6 hPa | 0 mm | - | - | - |
| 1778079927 | 10.56° C | 82% | 1012.6 hPa | 0 mm | - | - | - |
| 1778078419 | 9.44° C | 84% | 1012.6 hPa | 0 mm | - | - | - |
| 1778077525 | 8.89° C | 87% | 1012.6 hPa | 0 mm | - | - | - |
| 1778076619 | 9.44° C | 86% | 1012.1 hPa | 0 mm | - | - | - |
| 1778074228 | 7.78° C | 93% | 1012.1 hPa | 0 mm | - | - | - |
| 1778073630 | 7.78° C | 95% | 1012.3 hPa | 0 mm | - | - | - |
| 1778071819 | 6.67° C | 99% | 1011.8 hPa | 0 mm | - | - | - |
| 1778071217 | 6.67° C | 99% | 1011.6 hPa | 0 mm | - | - | - |
| 1778070617 | 6.67° C | 99% | 1011.3 hPa | 0 mm | - | - | - |
| 1778070019 | 6.11° C | 99% | 1011.3 hPa | 0 mm | - | - | - |
| 1778069723 | 6.11° C | 99% | 1011.3 hPa | 0 mm | - | - | - |
| 1778067925 | 5.56° C | 99% | 1010.7 hPa | 0 mm | - | - | - |
| 1778067327 | 5.56° C | 99% | 1010.3 hPa | 0 mm | - | - | - |
| 1778065227 | 5.56° C | 99% | 1010 hPa | 0 mm | - | - | - |
| 1778064629 | 5.56° C | 99% | 1010.1 hPa | 0 mm | - | - | - |
| 1778063723 | 5.56° C | 99% | 1009.7 hPa | 0 mm | - | - | - |
| 1778063433 | 5.56° C | 99% | 1009.7 hPa | 0 mm | - | - | - |
| 1778063125 | 5.56° C | 99% | 1009.5 hPa | 0 mm | - | - | - |
| 1778062527 | 5.56° C | 99% | 1009.4 hPa | 0 mm | - | - | - |
| 1778062219 | 5.56° C | 99% | 1009.5 hPa | 0 mm | - | - | - |
| 1778060727 | 5.56° C | 99% | 1009.3 hPa | 0 mm | - | - | - |
* Rain latest hour (hover to see other rain measurements)
** Current wind speed in m/s (hover to see current wind gust speed)